sensor_id;sensor_type;location;lat;lon;timestamp;P1;durP1;ratioP1;P2;durP2;ratioP2
1879;SDS011;49285;49.002;8.390;2022-11-15T00:01:21;16.70;;;12.57;;
1879;SDS011;49285;49.002;8.390;2022-11-15T00:03:50;13.67;;;12.13;;
1879;SDS011;49285;49.002;8.390;2022-11-15T00:06:16;15.13;;;12.30;;
1879;SDS011;49285;49.002;8.390;2022-11-15T00:08:41;18.40;;;13.10;;
1879;SDS011;49285;49.002;8.390;2022-11-15T00:11:08;16.97;;;12.27;;
1879;SDS011;49285;49.002;8.390;2022-11-15T00:13:35;14.33;;;12.40;;
1879;SDS011;49285;49.002;8.390;2022-11-15T00:16:01;16.50;;;12.00;;
1879;SDS011;49285;49.002;8.390;2022-11-15T00:18:27;14.93;;;12.50;;
1879;SDS011;49285;49.002;8.390;2022-11-15T00:20:53;15.10;;;12.50;;
1879;SDS011;49285;49.002;8.390;2022-11-15T00:23:19;17.10;;;11.90;;
1879;SDS011;49285;49.002;8.390;2022-11-15T00:25:45;17.33;;;11.70;;
1879;SDS011;49285;49.002;8.390;2022-11-15T00:28:10;18.27;;;11.87;;
1879;SDS011;49285;49.002;8.390;2022-11-15T00:30:36;11.67;;;9.63;;
1879;SDS011;49285;49.002;8.390;2022-11-15T00:33:03;14.10;;;11.67;;
1879;SDS011;49285;49.002;8.390;2022-11-15T00:35:33;14.57;;;11.20;;
1879;SDS011;49285;49.002;8.390;2022-11-15T00:37:59;13.07;;;10.97;;
1879;SDS011;49285;49.002;8.390;2022-11-15T00:40:26;15.50;;;11.00;;
1879;SDS011;49285;49.002;8.390;2022-11-15T00:42:52;15.60;;;10.87;;
1879;SDS011;49285;49.002;8.390;2022-11-15T00:45:17;13.83;;;10.90;;
1879;SDS011;49285;49.002;8.390;2022-11-15T00:47:46;13.70;;;10.80;;
1879;SDS011;49285;49.002;8.390;2022-11-15T00:50:12;15.50;;;10.73;;
1879;SDS011;49285;49.002;8.390;2022-11-15T00:52:39;14.00;;;11.23;;
1879;SDS011;49285;49.002;8.390;2022-11-15T00:55:04;18.37;;;11.47;;
1879;SDS011;49285;49.002;8.390;2022-11-15T00:57:30;16.27;;;11.23;;
1879;SDS011;49285;49.002;8.390;2022-11-15T00:59:56;12.23;;;10.93;;
1879;SDS011;49285;49.002;8.390;2022-11-15T01:02:21;13.73;;;11.40;;
1879;SDS011;49285;49.002;8.390;2022-11-15T01:07:45;15.73;;;10.03;;
1879;SDS011;49285;49.002;8.390;2022-11-15T01:10:10;15.20;;;10.90;;
1879;SDS011;49285;49.002;8.390;2022-11-15T01:12:36;14.80;;;10.53;;
1879;SDS011;49285;49.002;8.390;2022-11-15T01:15:04;12.80;;;10.73;;
1879;SDS011;49285;49.002;8.390;2022-11-15T01:17:31;13.83;;;11.23;;
1879;SDS011;49285;49.002;8.390;2022-11-15T01:19:56;13.80;;;9.67;;
1879;SDS011;49285;49.002;8.390;2022-11-15T01:22:22;13.20;;;10.23;;
1879;SDS011;49285;49.002;8.390;2022-11-15T01:24:51;12.77;;;9.70;;
1879;SDS011;49285;49.002;8.390;2022-11-15T01:27:16;12.23;;;10.20;;
1879;SDS011;49285;49.002;8.390;2022-11-15T01:29:42;11.53;;;10.20;;
1879;SDS011;49285;49.002;8.390;2022-11-15T01:32:08;11.50;;;10.30;;
1879;SDS011;49285;49.002;8.390;2022-11-15T01:34:34;14.27;;;10.90;;
1879;SDS011;49285;49.002;8.390;2022-11-15T01:36:59;14.17;;;10.87;;
1879;SDS011;49285;49.002;8.390;2022-11-15T01:39:25;16.90;;;10.73;;
1879;SDS011;49285;49.002;8.390;2022-11-15T01:41:51;10.53;;;9.20;;
1879;SDS011;49285;49.002;8.390;2022-11-15T01:49:55;11.00;;;9.00;;
1879;SDS011;49285;49.002;8.390;2022-11-15T01:52:27;11.73;;;8.63;;
1879;SDS011;49285;49.002;8.390;2022-11-15T01:57:42;12.40;;;8.93;;
1879;SDS011;49285;49.002;8.390;2022-11-15T02:00:11;11.50;;;9.13;;
1879;SDS011;49285;49.002;8.390;2022-11-15T02:02:37;11.70;;;7.93;;
1879;SDS011;49285;49.002;8.390;2022-11-15T02:05:04;13.43;;;8.97;;
1879;SDS011;49285;49.002;8.390;2022-11-15T02:07:30;11.73;;;8.83;;
1879;SDS011;49285;49.002;8.390;2022-11-15T02:10:01;13.60;;;8.97;;
1879;SDS011;49285;49.002;8.390;2022-11-15T02:12:34;11.30;;;8.27;;
1879;SDS011;49285;49.002;8.390;2022-11-15T02:15:00;13.47;;;8.47;;
1879;SDS011;49285;49.002;8.390;2022-11-15T02:29:20;12.43;;;8.57;;
1879;SDS011;49285;49.002;8.390;2022-11-15T02:32:10;9.73;;;6.80;;
1879;SDS011;49285;49.002;8.390;2022-11-15T02:37:52;11.53;;;9.30;;
1879;SDS011;49285;49.002;8.390;2022-11-15T02:42:54;10.10;;;8.03;;
1879;SDS011;49285;49.002;8.390;2022-11-15T02:45:44;11.67;;;8.50;;
1879;SDS011;49285;49.002;8.390;2022-11-15T02:48:13;9.63;;;7.60;;
1879;SDS011;49285;49.002;8.390;2022-11-15T02:50:41;9.20;;;7.80;;
1879;SDS011;49285;49.002;8.390;2022-11-15T02:53:08;10.30;;;7.63;;
1879;SDS011;49285;49.002;8.390;2022-11-15T02:55:35;9.77;;;7.27;;
1879;SDS011;49285;49.002;8.390;2022-11-15T02:58:23;10.77;;;9.10;;
1879;SDS011;49285;49.002;8.390;2022-11-15T03:01:37;7.67;;;6.87;;
1879;SDS011;49285;49.002;8.390;2022-11-15T03:04:04;8.90;;;7.37;;
1879;SDS011;49285;49.002;8.390;2022-11-15T03:06:42;9.40;;;7.43;;
1879;SDS011;49285;49.002;8.390;2022-11-15T03:12:16;9.80;;;6.67;;
1879;SDS011;49285;49.002;8.390;2022-11-15T03:15:14;10.90;;;6.70;;
1879;SDS011;49285;49.002;8.390;2022-11-15T03:20:55;8.20;;;6.80;;
1879;SDS011;49285;49.002;8.390;2022-11-15T03:23:22;8.07;;;6.43;;
1879;SDS011;49285;49.002;8.390;2022-11-15T03:25:50;12.53;;;6.50;;
1879;SDS011;49285;49.002;8.390;2022-11-15T03:28:23;9.03;;;7.10;;
1879;SDS011;49285;49.002;8.390;2022-11-15T03:30:54;8.13;;;6.90;;
1879;SDS011;49285;49.002;8.390;2022-11-15T03:33:21;6.70;;;6.00;;
1879;SDS011;49285;49.002;8.390;2022-11-15T03:35:47;8.90;;;6.87;;
1879;SDS011;49285;49.002;8.390;2022-11-15T03:38:16;8.13;;;6.00;;
1879;SDS011;49285;49.002;8.390;2022-11-15T03:40:51;7.50;;;6.07;;
1879;SDS011;49285;49.002;8.390;2022-11-15T03:43:30;8.50;;;6.23;;
1879;SDS011;49285;49.002;8.390;2022-11-15T03:46:09;7.23;;;6.20;;
1879;SDS011;49285;49.002;8.390;2022-11-15T03:48:43;6.90;;;5.53;;
1879;SDS011;49285;49.002;8.390;2022-11-15T03:51:19;7.50;;;5.83;;
1879;SDS011;49285;49.002;8.390;2022-11-15T03:53:45;8.50;;;6.20;;
1879;SDS011;49285;49.002;8.390;2022-11-15T03:56:11;7.67;;;6.23;;
1879;SDS011;49285;49.002;8.390;2022-11-15T03:58:36;7.50;;;6.00;;
1879;SDS011;49285;49.002;8.390;2022-11-15T04:01:02;7.63;;;6.03;;
1879;SDS011;49285;49.002;8.390;2022-11-15T04:03:28;8.57;;;6.07;;
1879;SDS011;49285;49.002;8.390;2022-11-15T04:05:53;7.03;;;5.60;;
1879;SDS011;49285;49.002;8.390;2022-11-15T04:08:19;7.57;;;6.23;;
1879;SDS011;49285;49.002;8.390;2022-11-15T04:10:45;6.10;;;5.23;;
1879;SDS011;49285;49.002;8.390;2022-11-15T04:13:16;10.50;;;6.00;;
1879;SDS011;49285;49.002;8.390;2022-11-15T04:15:41;7.63;;;6.30;;
1879;SDS011;49285;49.002;8.390;2022-11-15T04:18:07;9.17;;;6.43;;
1879;SDS011;49285;49.002;8.390;2022-11-15T04:20:32;8.20;;;6.37;;
1879;SDS011;49285;49.002;8.390;2022-11-15T04:23:20;10.53;;;6.33;;
1879;SDS011;49285;49.002;8.390;2022-11-15T04:26:07;8.93;;;7.60;;
1879;SDS011;49285;49.002;8.390;2022-11-15T04:28:36;7.27;;;6.10;;
1879;SDS011;49285;49.002;8.390;2022-11-15T04:31:22;8.87;;;6.77;;
1879;SDS011;49285;49.002;8.390;2022-11-15T04:33:47;13.10;;;6.23;;
1879;SDS011;49285;49.002;8.390;2022-11-15T04:36:13;8.30;;;6.50;;
1879;SDS011;49285;49.002;8.390;2022-11-15T04:38:57;9.17;;;7.13;;
1879;SDS011;49285;49.002;8.390;2022-11-15T04:41:23;11.90;;;8.23;;
1879;SDS011;49285;49.002;8.390;2022-11-15T04:43:48;10.20;;;7.43;;
1879;SDS011;49285;49.002;8.390;2022-11-15T04:46:14;11.87;;;7.67;;
1879;SDS011;49285;49.002;8.390;2022-11-15T04:48:39;9.57;;;7.47;;
1879;SDS011;49285;49.002;8.390;2022-11-15T04:51:05;11.00;;;7.77;;
1879;SDS011;49285;49.002;8.390;2022-11-15T04:53:30;9.90;;;8.20;;
1879;SDS011;49285;49.002;8.390;2022-11-15T04:55:56;12.67;;;10.20;;
1879;SDS011;49285;49.002;8.390;2022-11-15T04:58:21;12.30;;;9.60;;
1879;SDS011;49285;49.002;8.390;2022-11-15T05:00:47;11.40;;;9.07;;
1879;SDS011;49285;49.002;8.390;2022-11-15T05:03:13;13.30;;;8.80;;
1879;SDS011;49285;49.002;8.390;2022-11-15T05:05:57;12.07;;;9.20;;
1879;SDS011;49285;49.002;8.390;2022-11-15T05:08:23;13.80;;;9.73;;
1879;SDS011;49285;49.002;8.390;2022-11-15T05:10:49;10.50;;;8.67;;
1879;SDS011;49285;49.002;8.390;2022-11-15T05:13:15;9.03;;;7.67;;
1879;SDS011;49285;49.002;8.390;2022-11-15T05:15:41;9.10;;;7.80;;
1879;SDS011;49285;49.002;8.390;2022-11-15T05:18:07;9.60;;;7.33;;
1879;SDS011;49285;49.002;8.390;2022-11-15T05:20:39;9.40;;;7.70;;
1879;SDS011;49285;49.002;8.390;2022-11-15T05:23:04;10.33;;;7.73;;
1879;SDS011;49285;49.002;8.390;2022-11-15T05:25:30;11.40;;;7.13;;
1879;SDS011;49285;49.002;8.390;2022-11-15T05:27:56;8.13;;;7.00;;
1879;SDS011;49285;49.002;8.390;2022-11-15T05:30:22;11.10;;;7.43;;
1879;SDS011;49285;49.002;8.390;2022-11-15T05:32:47;7.67;;;6.87;;
1879;SDS011;49285;49.002;8.390;2022-11-15T05:35:35;10.07;;;7.73;;
1879;SDS011;49285;49.002;8.390;2022-11-15T05:38:10;10.90;;;7.00;;
1879;SDS011;49285;49.002;8.390;2022-11-15T05:40:35;10.30;;;6.40;;
1879;SDS011;49285;49.002;8.390;2022-11-15T05:43:01;10.83;;;7.60;;
1879;SDS011;49285;49.002;8.390;2022-11-15T05:45:29;9.67;;;6.97;;
1879;SDS011;49285;49.002;8.390;2022-11-15T05:47:56;8.53;;;6.77;;
1879;SDS011;49285;49.002;8.390;2022-11-15T05:50:25;8.03;;;6.40;;
1879;SDS011;49285;49.002;8.390;2022-11-15T05:52:51;10.60;;;7.67;;
1879;SDS011;49285;49.002;8.390;2022-11-15T05:55:17;11.60;;;7.10;;
1879;SDS011;49285;49.002;8.390;2022-11-15T05:57:43;10.93;;;7.03;;
1879;SDS011;49285;49.002;8.390;2022-11-15T06:00:09;13.83;;;7.90;;
1879;SDS011;49285;49.002;8.390;2022-11-15T06:02:35;8.03;;;6.90;;
1879;SDS011;49285;49.002;8.390;2022-11-15T06:05:01;8.67;;;7.03;;
1879;SDS011;49285;49.002;8.390;2022-11-15T06:07:28;9.37;;;7.30;;
1879;SDS011;49285;49.002;8.390;2022-11-15T06:09:54;12.50;;;7.00;;
1879;SDS011;49285;49.002;8.390;2022-11-15T06:12:19;8.57;;;7.67;;
1879;SDS011;49285;49.002;8.390;2022-11-15T06:14:48;9.07;;;7.00;;
1879;SDS011;49285;49.002;8.390;2022-11-15T06:17:38;8.80;;;7.00;;
1879;SDS011;49285;49.002;8.390;2022-11-15T06:20:04;8.87;;;7.30;;
1879;SDS011;49285;49.002;8.390;2022-11-15T06:22:30;7.90;;;7.03;;
1879;SDS011;49285;49.002;8.390;2022-11-15T06:24:56;11.00;;;7.27;;
1879;SDS011;49285;49.002;8.390;2022-11-15T06:27:22;9.73;;;7.43;;
1879;SDS011;49285;49.002;8.390;2022-11-15T06:29:47;8.50;;;6.67;;
1879;SDS011;49285;49.002;8.390;2022-11-15T06:32:13;9.93;;;6.93;;
1879;SDS011;49285;49.002;8.390;2022-11-15T06:34:38;11.53;;;7.40;;
1879;SDS011;49285;49.002;8.390;2022-11-15T06:37:04;9.00;;;7.30;;
1879;SDS011;49285;49.002;8.390;2022-11-15T06:39:30;10.70;;;7.20;;
1879;SDS011;49285;49.002;8.390;2022-11-15T06:41:55;13.30;;;7.63;;
1879;SDS011;49285;49.002;8.390;2022-11-15T06:44:21;12.43;;;7.60;;
1879;SDS011;49285;49.002;8.390;2022-11-15T06:46:46;9.10;;;7.67;;
1879;SDS011;49285;49.002;8.390;2022-11-15T06:49:12;9.40;;;7.43;;
1879;SDS011;49285;49.002;8.390;2022-11-15T06:51:37;9.77;;;7.30;;
1879;SDS011;49285;49.002;8.390;2022-11-15T06:54:03;9.93;;;7.07;;
1879;SDS011;49285;49.002;8.390;2022-11-15T06:56:28;8.43;;;6.87;;
1879;SDS011;49285;49.002;8.390;2022-11-15T06:58:55;10.00;;;8.20;;
1879;SDS011;49285;49.002;8.390;2022-11-15T07:01:20;9.17;;;7.60;;
1879;SDS011;49285;49.002;8.390;2022-11-15T07:03:46;10.80;;;7.63;;
1879;SDS011;49285;49.002;8.390;2022-11-15T07:06:11;12.27;;;9.00;;
1879;SDS011;49285;49.002;8.390;2022-11-15T07:08:37;12.10;;;9.87;;
1879;SDS011;49285;49.002;8.390;2022-11-15T07:11:04;11.20;;;8.00;;
1879;SDS011;49285;49.002;8.390;2022-11-15T07:13:31;12.23;;;8.03;;
1879;SDS011;49285;49.002;8.390;2022-11-15T07:15:58;13.40;;;8.57;;
1879;SDS011;49285;49.002;8.390;2022-11-15T07:18:26;9.13;;;8.13;;
1879;SDS011;49285;49.002;8.390;2022-11-15T07:20:52;10.47;;;8.80;;
1879;SDS011;49285;49.002;8.390;2022-11-15T07:23:17;11.47;;;8.27;;
1879;SDS011;49285;49.002;8.390;2022-11-15T07:25:43;25.13;;;17.40;;
1879;SDS011;49285;49.002;8.390;2022-11-15T07:28:09;16.10;;;11.30;;
1879;SDS011;49285;49.002;8.390;2022-11-15T07:30:34;15.50;;;8.80;;
1879;SDS011;49285;49.002;8.390;2022-11-15T07:33:00;15.23;;;7.60;;
1879;SDS011;49285;49.002;8.390;2022-11-15T07:35:26;13.67;;;9.30;;
1879;SDS011;49285;49.002;8.390;2022-11-15T07:37:57;9.00;;;8.07;;
1879;SDS011;49285;49.002;8.390;2022-11-15T07:40:27;13.27;;;7.53;;
1879;SDS011;49285;49.002;8.390;2022-11-15T07:43:04;10.40;;;8.70;;
1879;SDS011;49285;49.002;8.390;2022-11-15T07:45:30;9.47;;;7.70;;
1879;SDS011;49285;49.002;8.390;2022-11-15T07:47:58;12.90;;;8.40;;
1879;SDS011;49285;49.002;8.390;2022-11-15T07:50:24;12.50;;;8.13;;
1879;SDS011;49285;49.002;8.390;2022-11-15T07:52:53;16.60;;;7.37;;
1879;SDS011;49285;49.002;8.390;2022-11-15T07:55:20;12.50;;;8.13;;
1879;SDS011;49285;49.002;8.390;2022-11-15T07:57:46;12.93;;;7.37;;
1879;SDS011;49285;49.002;8.390;2022-11-15T08:00:12;19.70;;;8.00;;
1879;SDS011;49285;49.002;8.390;2022-11-15T08:02:40;12.43;;;7.90;;
1879;SDS011;49285;49.002;8.390;2022-11-15T08:05:06;16.70;;;6.90;;
1879;SDS011;49285;49.002;8.390;2022-11-15T08:07:32;12.00;;;7.60;;
1879;SDS011;49285;49.002;8.390;2022-11-15T08:09:58;11.40;;;8.10;;
1879;SDS011;49285;49.002;8.390;2022-11-15T08:12:23;27.47;;;15.90;;
1879;SDS011;49285;49.002;8.390;2022-11-15T08:14:49;23.90;;;13.73;;
1879;SDS011;49285;49.002;8.390;2022-11-15T08:17:15;22.27;;;12.97;;
1879;SDS011;49285;49.002;8.390;2022-11-15T08:19:40;16.60;;;9.97;;
1879;SDS011;49285;49.002;8.390;2022-11-15T08:22:06;17.50;;;10.17;;
1879;SDS011;49285;49.002;8.390;2022-11-15T08:24:32;12.70;;;8.53;;
1879;SDS011;49285;49.002;8.390;2022-11-15T08:26:59;9.40;;;7.40;;
1879;SDS011;49285;49.002;8.390;2022-11-15T08:29:25;9.80;;;7.07;;
1879;SDS011;49285;49.002;8.390;2022-11-15T08:31:51;8.13;;;6.70;;
1879;SDS011;49285;49.002;8.390;2022-11-15T08:34:19;16.03;;;7.50;;
1879;SDS011;49285;49.002;8.390;2022-11-15T08:36:44;9.50;;;6.73;;
1879;SDS011;49285;49.002;8.390;2022-11-15T08:39:10;8.93;;;7.27;;
1879;SDS011;49285;49.002;8.390;2022-11-15T08:41:37;9.90;;;7.03;;
1879;SDS011;49285;49.002;8.390;2022-11-15T08:44:03;8.67;;;6.47;;
1879;SDS011;49285;49.002;8.390;2022-11-15T08:46:29;10.77;;;7.07;;
1879;SDS011;49285;49.002;8.390;2022-11-15T08:48:54;7.60;;;6.40;;
1879;SDS011;49285;49.002;8.390;2022-11-15T08:51:20;10.00;;;6.83;;
1879;SDS011;49285;49.002;8.390;2022-11-15T08:53:45;11.13;;;6.80;;
1879;SDS011;49285;49.002;8.390;2022-11-15T08:56:12;7.23;;;6.53;;
1879;SDS011;49285;49.002;8.390;2022-11-15T08:58:39;8.27;;;5.83;;
1879;SDS011;49285;49.002;8.390;2022-11-15T09:01:04;12.10;;;7.93;;
1879;SDS011;49285;49.002;8.390;2022-11-15T09:03:30;14.37;;;8.00;;
1879;SDS011;49285;49.002;8.390;2022-11-15T09:05:56;11.97;;;8.37;;
1879;SDS011;49285;49.002;8.390;2022-11-15T09:08:24;12.90;;;9.00;;
1879;SDS011;49285;49.002;8.390;2022-11-15T09:10:51;15.20;;;10.90;;
1879;SDS011;49285;49.002;8.390;2022-11-15T09:13:17;14.53;;;8.50;;
1879;SDS011;49285;49.002;8.390;2022-11-15T09:15:42;9.27;;;6.60;;
1879;SDS011;49285;49.002;8.390;2022-11-15T09:18:08;9.77;;;6.63;;
1879;SDS011;49285;49.002;8.390;2022-11-15T09:20:34;8.03;;;6.43;;
1879;SDS011;49285;49.002;8.390;2022-11-15T09:23:03;8.40;;;6.63;;
1879;SDS011;49285;49.002;8.390;2022-11-15T09:25:30;7.60;;;5.60;;
1879;SDS011;49285;49.002;8.390;2022-11-15T09:27:56;10.07;;;6.50;;
1879;SDS011;49285;49.002;8.390;2022-11-15T09:30:22;10.60;;;6.27;;
1879;SDS011;49285;49.002;8.390;2022-11-15T09:32:49;7.80;;;6.60;;
1879;SDS011;49285;49.002;8.390;2022-11-15T09:35:14;8.40;;;7.17;;
1879;SDS011;49285;49.002;8.390;2022-11-15T09:37:40;12.83;;;7.30;;
1879;SDS011;49285;49.002;8.390;2022-11-15T09:40:08;13.63;;;11.13;;
1879;SDS011;49285;49.002;8.390;2022-11-15T09:45:40;14.70;;;11.30;;
1879;SDS011;49285;49.002;8.390;2022-11-15T09:51:03;12.03;;;8.17;;
1879;SDS011;49285;49.002;8.390;2022-11-15T09:53:32;11.10;;;8.43;;
1879;SDS011;49285;49.002;8.390;2022-11-15T09:56:09;9.33;;;6.60;;
1879;SDS011;49285;49.002;8.390;2022-11-15T09:58:49;12.80;;;6.47;;
1879;SDS011;49285;49.002;8.390;2022-11-15T10:01:53;9.43;;;6.57;;
1879;SDS011;49285;49.002;8.390;2022-11-15T10:04:27;9.83;;;6.77;;
1879;SDS011;49285;49.002;8.390;2022-11-15T10:06:55;8.83;;;7.20;;
1879;SDS011;49285;49.002;8.390;2022-11-15T10:09:36;10.70;;;6.70;;
1879;SDS011;49285;49.002;8.390;2022-11-15T10:12:23;11.63;;;6.30;;
1879;SDS011;49285;49.002;8.390;2022-11-15T10:14:50;11.83;;;7.17;;
1879;SDS011;49285;49.002;8.390;2022-11-15T10:17:34;12.50;;;6.70;;
1879;SDS011;49285;49.002;8.390;2022-11-15T10:20:19;9.83;;;8.30;;
1879;SDS011;49285;49.002;8.390;2022-11-15T10:22:48;6.73;;;5.90;;
1879;SDS011;49285;49.002;8.390;2022-11-15T10:25:37;16.13;;;7.60;;
1879;SDS011;49285;49.002;8.390;2022-11-15T10:28:09;11.07;;;8.03;;
1879;SDS011;49285;49.002;8.390;2022-11-15T10:30:40;15.73;;;6.27;;
1879;SDS011;49285;49.002;8.390;2022-11-15T10:35:46;11.67;;;8.27;;
1879;SDS011;49285;49.002;8.390;2022-11-15T10:38:12;10.53;;;7.60;;
1879;SDS011;49285;49.002;8.390;2022-11-15T10:40:38;10.47;;;7.40;;
1879;SDS011;49285;49.002;8.390;2022-11-15T10:43:16;13.53;;;8.00;;
1879;SDS011;49285;49.002;8.390;2022-11-15T10:45:43;10.47;;;7.37;;
1879;SDS011;49285;49.002;8.390;2022-11-15T10:50:39;11.40;;;8.13;;
1879;SDS011;49285;49.002;8.390;2022-11-15T10:53:15;12.10;;;7.83;;
1879;SDS011;49285;49.002;8.390;2022-11-15T10:55:49;11.40;;;7.90;;
1879;SDS011;49285;49.002;8.390;2022-11-15T10:58:29;12.07;;;7.00;;
1879;SDS011;49285;49.002;8.390;2022-11-15T11:06:29;11.40;;;8.87;;
1879;SDS011;49285;49.002;8.390;2022-11-15T11:08:57;15.97;;;8.73;;
1879;SDS011;49285;49.002;8.390;2022-11-15T11:11:25;9.77;;;8.10;;
1879;SDS011;49285;49.002;8.390;2022-11-15T11:14:13;12.00;;;8.43;;
1879;SDS011;49285;49.002;8.390;2022-11-15T11:16:48;15.00;;;8.07;;
1879;SDS011;49285;49.002;8.390;2022-11-15T11:19:31;15.10;;;9.00;;
1879;SDS011;49285;49.002;8.390;2022-11-15T11:22:25;15.73;;;10.10;;
1879;SDS011;49285;49.002;8.390;2022-11-15T11:30:57;15.47;;;9.70;;
1879;SDS011;49285;49.002;8.390;2022-11-15T11:34:01;13.93;;;10.00;;
1879;SDS011;49285;49.002;8.390;2022-11-15T11:36:50;17.40;;;9.27;;
1879;SDS011;49285;49.002;8.390;2022-11-15T11:39:28;15.93;;;9.87;;
1879;SDS011;49285;49.002;8.390;2022-11-15T11:42:17;14.30;;;8.47;;
1879;SDS011;49285;49.002;8.390;2022-11-15T11:47:30;15.23;;;7.77;;
1879;SDS011;49285;49.002;8.390;2022-11-15T11:50:01;18.80;;;7.83;;
1879;SDS011;49285;49.002;8.390;2022-11-15T11:52:38;9.20;;;7.70;;
1879;SDS011;49285;49.002;8.390;2022-11-15T11:55:38;8.37;;;6.67;;
1879;SDS011;49285;49.002;8.390;2022-11-15T11:58:15;7.90;;;6.37;;
1879;SDS011;49285;49.002;8.390;2022-11-15T12:03:47;11.27;;;6.53;;
1879;SDS011;49285;49.002;8.390;2022-11-15T12:12:00;15.70;;;9.10;;
1879;SDS011;49285;49.002;8.390;2022-11-15T12:14:58;11.33;;;7.90;;
1879;SDS011;49285;49.002;8.390;2022-11-15T12:17:34;13.83;;;7.47;;
1879;SDS011;49285;49.002;8.390;2022-11-15T12:20:05;9.43;;;7.87;;
1879;SDS011;49285;49.002;8.390;2022-11-15T12:25:22;10.20;;;6.57;;
1879;SDS011;49285;49.002;8.390;2022-11-15T12:27:51;7.90;;;6.80;;
1879;SDS011;49285;49.002;8.390;2022-11-15T12:30:21;9.13;;;6.23;;
1879;SDS011;49285;49.002;8.390;2022-11-15T12:32:49;9.97;;;7.63;;
1879;SDS011;49285;49.002;8.390;2022-11-15T12:38:08;8.90;;;6.40;;
1879;SDS011;49285;49.002;8.390;2022-11-15T12:40:39;8.57;;;7.20;;
1879;SDS011;49285;49.002;8.390;2022-11-15T12:43:41;9.87;;;6.57;;
1879;SDS011;49285;49.002;8.390;2022-11-15T12:46:10;7.70;;;6.03;;
1879;SDS011;49285;49.002;8.390;2022-11-15T12:51:04;6.87;;;5.60;;
1879;SDS011;49285;49.002;8.390;2022-11-15T12:53:31;7.67;;;6.07;;
1879;SDS011;49285;49.002;8.390;2022-11-15T13:01:09;7.43;;;6.13;;
1879;SDS011;49285;49.002;8.390;2022-11-15T13:04:09;9.63;;;6.73;;
1879;SDS011;49285;49.002;8.390;2022-11-15T13:06:44;7.93;;;5.90;;
1879;SDS011;49285;49.002;8.390;2022-11-15T13:11:59;9.07;;;6.50;;
1879;SDS011;49285;49.002;8.390;2022-11-15T13:14:39;10.80;;;7.70;;
1879;SDS011;49285;49.002;8.390;2022-11-15T13:17:12;13.00;;;6.90;;
1879;SDS011;49285;49.002;8.390;2022-11-15T13:19:44;11.53;;;5.50;;
1879;SDS011;49285;49.002;8.390;2022-11-15T13:22:12;7.80;;;4.93;;
1879;SDS011;49285;49.002;8.390;2022-11-15T13:24:57;6.63;;;5.77;;
1879;SDS011;49285;49.002;8.390;2022-11-15T13:27:23;8.10;;;5.77;;
1879;SDS011;49285;49.002;8.390;2022-11-15T13:29:50;8.93;;;5.50;;
1879;SDS011;49285;49.002;8.390;2022-11-15T13:32:17;9.23;;;5.50;;
1879;SDS011;49285;49.002;8.390;2022-11-15T13:34:43;8.20;;;6.07;;
1879;SDS011;49285;49.002;8.390;2022-11-15T13:39:44;8.10;;;5.50;;
1879;SDS011;49285;49.002;8.390;2022-11-15T13:42:14;7.13;;;5.33;;
1879;SDS011;49285;49.002;8.390;2022-11-15T13:44:41;7.90;;;5.50;;
1879;SDS011;49285;49.002;8.390;2022-11-15T13:47:25;8.63;;;4.90;;
1879;SDS011;49285;49.002;8.390;2022-11-15T13:49:52;6.20;;;5.00;;
1879;SDS011;49285;49.002;8.390;2022-11-15T13:52:27;8.70;;;5.13;;
1879;SDS011;49285;49.002;8.390;2022-11-15T13:55:01;6.70;;;4.60;;
1879;SDS011;49285;49.002;8.390;2022-11-15T13:57:42;6.53;;;4.73;;
1879;SDS011;49285;49.002;8.390;2022-11-15T14:00:25;5.30;;;4.80;;
1879;SDS011;49285;49.002;8.390;2022-11-15T14:02:56;6.40;;;5.13;;
1879;SDS011;49285;49.002;8.390;2022-11-15T14:05:30;6.73;;;5.90;;
1879;SDS011;49285;49.002;8.390;2022-11-15T14:08:03;7.33;;;5.33;;
1879;SDS011;49285;49.002;8.390;2022-11-15T14:10:38;6.50;;;5.43;;
1879;SDS011;49285;49.002;8.390;2022-11-15T14:13:09;8.00;;;5.40;;
1879;SDS011;49285;49.002;8.390;2022-11-15T14:15:51;8.23;;;5.73;;
1879;SDS011;49285;49.002;8.390;2022-11-15T14:21:07;7.97;;;6.30;;
1879;SDS011;49285;49.002;8.390;2022-11-15T14:23:33;7.47;;;5.23;;
1879;SDS011;49285;49.002;8.390;2022-11-15T14:25:59;8.37;;;5.03;;
1879;SDS011;49285;49.002;8.390;2022-11-15T14:30:54;7.27;;;4.70;;
1879;SDS011;49285;49.002;8.390;2022-11-15T14:33:31;6.20;;;5.60;;
1879;SDS011;49285;49.002;8.390;2022-11-15T14:36:05;6.07;;;4.93;;
1879;SDS011;49285;49.002;8.390;2022-11-15T14:38:35;6.50;;;5.40;;
1879;SDS011;49285;49.002;8.390;2022-11-15T14:41:01;7.90;;;5.87;;
1879;SDS011;49285;49.002;8.390;2022-11-15T14:43:27;9.83;;;7.27;;
1879;SDS011;49285;49.002;8.390;2022-11-15T14:45:53;10.83;;;7.17;;
1879;SDS011;49285;49.002;8.390;2022-11-15T14:48:18;8.77;;;7.07;;
1879;SDS011;49285;49.002;8.390;2022-11-15T14:50:44;8.13;;;6.60;;
1879;SDS011;49285;49.002;8.390;2022-11-15T14:53:11;9.50;;;7.50;;
1879;SDS011;49285;49.002;8.390;2022-11-15T14:55:39;7.87;;;6.20;;
1879;SDS011;49285;49.002;8.390;2022-11-15T14:58:06;8.33;;;6.00;;
1879;SDS011;49285;49.002;8.390;2022-11-15T15:00:35;7.07;;;5.63;;
1879;SDS011;49285;49.002;8.390;2022-11-15T15:03:03;12.50;;;7.60;;
1879;SDS011;49285;49.002;8.390;2022-11-15T15:05:31;7.57;;;6.07;;
1879;SDS011;49285;49.002;8.390;2022-11-15T15:07:58;8.37;;;6.70;;
1879;SDS011;49285;49.002;8.390;2022-11-15T15:10:24;8.83;;;5.90;;
1879;SDS011;49285;49.002;8.390;2022-11-15T15:12:52;9.10;;;6.23;;
1879;SDS011;49285;49.002;8.390;2022-11-15T15:15:21;11.50;;;6.43;;
1879;SDS011;49285;49.002;8.390;2022-11-15T15:17:49;8.67;;;5.57;;
1879;SDS011;49285;49.002;8.390;2022-11-15T15:20:15;7.77;;;5.90;;
1879;SDS011;49285;49.002;8.390;2022-11-15T15:22:44;6.27;;;5.10;;
1879;SDS011;49285;49.002;8.390;2022-11-15T15:25:23;7.20;;;4.90;;
1879;SDS011;49285;49.002;8.390;2022-11-15T15:27:55;7.07;;;5.10;;
1879;SDS011;49285;49.002;8.390;2022-11-15T15:30:21;9.50;;;6.17;;
1879;SDS011;49285;49.002;8.390;2022-11-15T15:32:48;7.33;;;5.60;;
1879;SDS011;49285;49.002;8.390;2022-11-15T15:35:14;9.37;;;5.80;;
1879;SDS011;49285;49.002;8.390;2022-11-15T15:37:41;6.87;;;5.60;;
1879;SDS011;49285;49.002;8.390;2022-11-15T15:40:10;7.20;;;5.50;;
1879;SDS011;49285;49.002;8.390;2022-11-15T15:42:43;10.23;;;6.77;;
1879;SDS011;49285;49.002;8.390;2022-11-15T15:45:09;7.17;;;4.93;;
1879;SDS011;49285;49.002;8.390;2022-11-15T15:47:35;7.70;;;5.23;;
1879;SDS011;49285;49.002;8.390;2022-11-15T15:50:02;7.50;;;6.70;;
1879;SDS011;49285;49.002;8.390;2022-11-15T15:52:28;6.50;;;5.80;;
1879;SDS011;49285;49.002;8.390;2022-11-15T15:54:54;8.77;;;6.67;;
1879;SDS011;49285;49.002;8.390;2022-11-15T15:57:19;9.77;;;6.20;;
1879;SDS011;49285;49.002;8.390;2022-11-15T15:59:45;10.17;;;6.13;;
1879;SDS011;49285;49.002;8.390;2022-11-15T16:02:13;7.70;;;5.07;;
1879;SDS011;49285;49.002;8.390;2022-11-15T16:04:39;9.67;;;5.50;;
1879;SDS011;49285;49.002;8.390;2022-11-15T16:07:05;7.30;;;5.43;;
1879;SDS011;49285;49.002;8.390;2022-11-15T16:09:36;10.73;;;6.27;;
1879;SDS011;49285;49.002;8.390;2022-11-15T16:12:21;8.10;;;5.53;;
1879;SDS011;49285;49.002;8.390;2022-11-15T16:14:46;6.70;;;5.50;;
1879;SDS011;49285;49.002;8.390;2022-11-15T16:17:16;11.37;;;5.90;;
1879;SDS011;49285;49.002;8.390;2022-11-15T16:19:44;9.27;;;6.10;;
1879;SDS011;49285;49.002;8.390;2022-11-15T16:22:09;12.33;;;7.33;;
1879;SDS011;49285;49.002;8.390;2022-11-15T16:24:35;13.57;;;8.60;;
1879;SDS011;49285;49.002;8.390;2022-11-15T16:27:00;12.83;;;8.77;;
1879;SDS011;49285;49.002;8.390;2022-11-15T16:29:26;12.20;;;8.13;;
1879;SDS011;49285;49.002;8.390;2022-11-15T16:31:53;10.10;;;6.70;;
1879;SDS011;49285;49.002;8.390;2022-11-15T16:34:18;9.73;;;6.27;;
1879;SDS011;49285;49.002;8.390;2022-11-15T16:36:44;9.40;;;6.60;;
1879;SDS011;49285;49.002;8.390;2022-11-15T16:39:13;10.90;;;5.90;;
1879;SDS011;49285;49.002;8.390;2022-11-15T16:41:40;7.20;;;5.90;;